Time;durP1;ratioP1;P1;durP2;ratioP2;P2;SDS_P1;SDS_P2;PMS_P1;PMS_P2;Temp;Humidity;BMP_temperature;BMP_pressure;BME280_temperature;BME280_humidity;BME280_pressure;Samples;Min_cycle;Max_cycle;Signal;HPM_P1;HPM_P2
2023/01/17 00:02:45;;;;;;;2.13;2.03;;;;;;;6.61;61.49;96047.31;6975318;28;20272;-78
2023/01/17 00:09:55;;;;;;;2.10;1.90;;;;;;;6.54;62.05;96060.06;6974892;28;20181;-78
2023/01/17 00:13:17;;;;;;;1.97;1.87;;;;;;;6.71;60.83;96058.97;6973393;28;20214;-78
2023/01/17 00:16:38;;;;;;;2.30;2.20;;;;;;;6.57;60.40;96041.66;6973485;28;20745;-78
2023/01/17 01:35:28;;;;;;;3.10;2.80;;;;;;;7.68;55.47;96122.31;6973527;28;20565;-79
2023/01/17 01:38:50;;;;;;;3.47;2.60;;;;;;;7.73;55.00;96117.00;6973464;28;20301;-79
2023/01/17 01:42:14;;;;;;;2.47;2.27;;;;;;;8.09;53.95;96121.66;6973064;28;20301;-79
2023/01/17 01:45:35;;;;;;;2.43;2.30;;;;;;;8.01;53.70;96095.28;6972256;28;20230;-78
2023/01/17 01:49:00;;;;;;;2.37;2.20;;;;;;;8.09;53.77;96112.78;6972878;28;20266;-79
2023/01/17 01:52:24;;;;;;;2.50;2.30;;;;;;;7.97;53.39;96120.19;6972632;28;20208;-79
2023/01/17 01:55:48;;;;;;;2.30;2.20;;;;;;;8.11;53.58;96100.75;6971930;28;20315;-78
2023/01/17 01:59:11;;;;;;;15.20;10.07;;;;;;;8.01;53.04;96099.84;6977105;28;20263;-79
2023/01/17 02:02:32;;;;;;;2.57;2.37;;;;;;;8.17;52.62;96110.47;6978206;28;20347;-79
2023/01/17 02:05:54;;;;;;;3.70;2.70;;;;;;;8.11;53.66;96122.22;6978412;28;20230;-78
2023/01/17 02:09:18;;;;;;;2.70;2.50;;;;;;;7.91;54.12;96110.47;6978349;28;20237;-79
2023/01/17 02:12:39;;;;;;;3.07;2.80;;;;;;;8.16;53.43;96111.53;6978095;28;20303;-79
2023/01/17 02:16:03;;;;;;;2.73;2.53;;;;;;;8.11;54.23;96076.59;6971976;28;20308;-79
2023/01/17 02:19:38;;;;;;;3.00;2.80;;;;;;;8.17;53.08;96115.00;6977694;28;20228;-78
2023/01/17 02:23:20;;;;;;;2.90;2.70;;;;;;;8.22;52.72;96086.38;6978019;28;20334;-79
2023/01/17 02:26:50;;;;;;;3.23;2.97;;;;;;;8.39;53.25;96105.03;6977120;28;20321;-79
2023/01/17 02:30:28;;;;;;;4.17;3.07;;;;;;;7.94;53.21;96101.91;6978051;28;20674;-79
2023/01/17 02:33:55;;;;;;;2.50;2.30;;;;;;;8.68;51.18;96095.56;6977967;28;20317;-79
2023/01/17 02:37:20;;;;;;;2.50;2.30;;;;;;;8.34;51.31;96078.97;6977103;28;20327;-78
2023/01/17 02:40:44;;;;;;;2.80;2.60;;;;;;;8.69;49.90;96089.13;6978225;28;20194;-79
2023/01/17 02:44:08;;;;;;;2.20;2.10;;;;;;;8.38;51.83;96077.38;6977309;28;20243;-79
2023/01/17 02:47:31;;;;;;;2.37;2.20;;;;;;;8.76;50.37;96100.44;6976679;28;20387;-79
2023/01/17 02:51:11;;;;;;;2.17;2.07;;;;;;;8.79;50.85;96106.13;6977295;28;20278;-78
2023/01/17 02:54:46;;;;;;;2.60;2.40;;;;;;;8.24;52.82;96110.28;6976587;28;20190;-79
2023/01/17 02:58:17;;;;;;;3.63;2.87;;;;;;;8.43;53.00;96112.31;6976746;28;20298;-78
2023/01/17 03:01:47;;;;;;;2.93;2.63;;;;;;;8.41;53.40;96101.03;6977136;28;20559;-78
2023/01/17 03:05:13;;;;;;;3.07;2.87;;;;;;;8.43;52.84;96088.16;6976028;28;20206;-79
2023/01/17 03:08:35;;;;;;;2.77;2.47;;;;;;;8.40;52.78;96095.91;6975456;28;20229;-79
2023/01/17 03:11:58;;;;;;;3.17;2.97;;;;;;;8.26;53.64;96084.00;6978334;28;20216;-79
2023/01/17 03:15:19;;;;;;;2.30;2.20;;;;;;;8.07;54.21;96096.94;6996396;28;20240;-78
2023/01/17 03:18:41;;;;;;;3.20;2.60;;;;;;;8.10;54.31;96103.69;6977287;28;20238;-78
2023/01/17 03:22:04;;;;;;;3.33;2.30;;;;;;;8.06;54.11;96103.38;6976706;28;20217;-78
2023/01/17 03:25:26;;;;;;;2.43;2.33;;;;;;;7.84;55.11;96113.34;6975642;28;20247;-78
2023/01/17 03:28:47;;;;;;;2.40;2.20;;;;;;;8.00;55.09;96112.44;6974952;28;20218;-78
2023/01/17 03:32:09;;;;;;;2.80;2.57;;;;;;;7.62;55.28;96074.25;6975940;28;20353;-79
2023/01/17 03:35:30;;;;;;;2.93;2.63;;;;;;;7.89;55.36;96108.03;6975791;28;20274;-79
2023/01/17 03:38:53;;;;;;;2.73;2.53;;;;;;;7.95;55.60;96101.66;6976304;28;20259;-79
2023/01/17 03:42:14;;;;;;;3.70;2.40;;;;;;;7.77;54.72;96075.22;6976122;28;20232;-79
2023/01/17 03:45:36;;;;;;;2.40;2.30;;;;;;;8.12;54.74;96106.91;6975029;28;20296;-79
2023/01/17 03:48:57;;;;;;;2.53;2.33;;;;;;;8.26;54.04;96106.25;6975935;28;20204;-79
2023/01/17 03:52:19;;;;;;;2.50;2.30;;;;;;;8.18;54.21;96106.72;6975679;28;20210;-79
2023/01/17 03:55:42;;;;;;;2.43;2.23;;;;;;;8.27;54.30;96105.22;6975272;28;20294;-78
2023/01/17 03:59:03;;;;;;;2.20;2.10;;;;;;;8.59;52.99;96107.84;6974962;28;20323;-79
2023/01/17 04:02:25;;;;;;;2.13;2.03;;;;;;;7.89;54.56;96080.44;6975948;28;20873;-79
2023/01/17 04:05:46;;;;;;;3.30;2.30;;;;;;;7.77;55.42;96120.78;6974420;28;20361;-78
2023/01/17 04:09:08;;;;;;;2.90;2.53;;;;;;;7.13;58.08;96128.88;6975397;28;20677;-78
2023/01/17 04:12:30;;;;;;;2.63;2.43;;;;;;;6.43;60.13;96149.28;6974410;28;20668;-78
2023/01/17 04:15:52;;;;;;;2.23;2.13;;;;;;;6.24;60.60;96156.72;6964925;28;20838;-77
2023/01/17 04:19:13;;;;;;;2.60;2.40;;;;;;;6.14;59.82;96129.00;6946709;28;20309;-78
2023/01/17 04:22:35;;;;;;;2.20;2.10;;;;;;;6.45;59.98;96157.88;6947356;28;20344;-78
2023/01/17 04:25:56;;;;;;;2.47;2.37;;;;;;;6.23;59.65;96147.09;6946982;28;20229;-78
2023/01/17 04:29:20;;;;;;;2.43;2.33;;;;;;;7.00;58.89;96135.41;6946182;28;20266;-78
2023/01/17 04:32:42;;;;;;;2.27;2.13;;;;;;;6.89;58.57;96114.09;6947231;28;20339;-79
2023/01/17 04:36:04;;;;;;;2.60;2.40;;;;;;;6.56;58.54;96106.94;6946425;28;20356;-78
2023/01/17 04:39:25;;;;;;;2.77;2.40;;;;;;;6.34;59.75;96110.59;6948897;28;20236;-78
2023/01/17 04:42:47;;;;;;;2.27;2.17;;;;;;;6.26;60.39;96129.75;6948775;28;20207;-78
2023/01/17 04:46:10;;;;;;;2.73;2.53;;;;;;;5.80;61.46;96119.31;6947008;28;20291;-78
2023/01/17 04:49:32;;;;;;;2.50;2.40;;;;;;;5.78;61.82;96134.75;6947246;28;20204;-78
2023/01/17 04:52:53;;;;;;;2.50;2.40;;;;;;;5.44;61.84;96106.31;6947316;28;20295;-78
2023/01/17 04:56:14;;;;;;;2.70;2.50;;;;;;;6.13;61.66;96135.41;6946516;28;20379;-78
2023/01/17 04:59:36;;;;;;;3.10;2.83;;;;;;;5.51;62.30;96133.69;6946617;28;20229;-78
2023/01/17 05:02:59;;;;;;;5.03;2.60;;;;;;;6.39;60.51;96138.25;6946186;28;20270;-78
2023/01/17 05:06:20;;;;;;;2.80;2.60;;;;;;;6.73;60.00;96139.81;6945993;28;20383;-78
2023/01/17 05:09:42;;;;;;;3.33;2.80;;;;;;;7.08;58.59;96129.63;6946232;28;20210;-78
2023/01/17 05:13:04;;;;;;;3.17;2.97;;;;;;;6.55;59.66;96136.63;6946150;28;20237;-78
2023/01/17 05:16:25;;;;;;;4.83;3.77;;;;;;;6.90;59.18;96134.47;6945474;28;20234;-78
2023/01/17 05:19:48;;;;;;;4.07;3.67;;;;;;;6.23;61.86;96143.59;6949036;28;20722;-78
2023/01/17 05:23:10;;;;;;;4.40;3.90;;;;;;;7.09;59.92;96131.25;6960370;28;20809;-78
2023/01/17 05:26:31;;;;;;;5.33;4.83;;;;;;;7.06;58.60;96112.16;6945441;28;20593;-78
2023/01/17 05:29:53;;;;;;;4.63;3.80;;;;;;;7.32;58.36;96143.59;6945186;28;20294;-78
2023/01/17 05:33:14;;;;;;;3.37;3.13;;;;;;;7.10;57.71;96134.72;6949579;28;20208;-78
2023/01/17 05:36:37;;;;;;;3.23;2.90;;;;;;;7.19;57.92;96109.94;6950448;28;20226;-78
2023/01/17 05:39:59;;;;;;;4.53;3.63;;;;;;;7.31;57.73;96115.97;6950858;28;20281;-78
2023/01/17 05:43:21;;;;;;;3.27;3.00;;;;;;;6.78;57.92;96129.19;6951392;28;20323;-78
2023/01/17 05:46:43;;;;;;;5.53;2.83;;;;;;;6.94;57.77;96132.91;6950238;28;20235;-78
2023/01/17 05:50:05;;;;;;;2.50;2.30;;;;;;;6.38;56.21;96125.91;6951277;28;20296;-79
2023/01/17 05:53:27;;;;;;;2.80;2.60;;;;;;;6.44;56.60;96137.53;6951488;28;20300;-78
2023/01/17 05:56:49;;;;;;;2.47;2.30;;;;;;;7.36;53.75;96115.25;6949707;28;20318;-78
2023/01/17 06:00:12;;;;;;;3.00;2.70;;;;;;;7.45;52.75;96106.50;6950020;28;20251;-78
2023/01/17 06:03:33;;;;;;;3.30;2.50;;;;;;;7.50;51.53;96103.06;6950303;28;20241;-79
2023/01/17 06:06:55;;;;;;;2.40;2.20;;;;;;;7.33;51.23;96113.06;6950278;28;20569;-78
2023/01/17 06:10:19;;;;;;;2.33;2.13;;;;;;;7.14;51.05;96071.56;6949962;28;20208;-79
2023/01/17 06:13:41;;;;;;;2.63;2.43;;;;;;;7.06;52.85;96090.75;6974966;28;20208;-78
2023/01/17 06:17:02;;;;;;;3.17;2.87;;;;;;;6.92;54.33;96101.03;6976827;28;20356;-78
2023/01/17 06:20:24;;;;;;;3.00;2.70;;;;;;;7.08;54.62;96102.81;6977091;28;20219;-79
2023/01/17 06:23:45;;;;;;;3.97;3.10;;;;;;;7.24;54.69;96093.94;6977145;28;20196;-79
2023/01/17 06:27:09;;;;;;;3.17;2.87;;;;;;;6.86;54.64;96085.97;6972428;28;20363;-79
2023/01/17 06:30:31;;;;;;;3.00;2.80;;;;;;;6.53;54.95;96061.09;6949576;28;20639;-79
2023/01/17 06:33:52;;;;;;;3.37;2.83;;;;;;;6.38;55.19;96066.25;6948577;28;20236;-77
2023/01/17 06:37:14;;;;;;;5.00;3.30;;;;;;;6.60;53.79;96062.56;6949234;28;20224;-80
2023/01/17 06:40:35;;;;;;;2.70;2.47;;;;;;;7.07;53.41;96050.31;6961824;28;20232;-79
2023/01/17 06:43:58;;;;;;;4.37;3.40;;;;;;;6.77;53.51;96043.78;6969085;28;20298;-80
2023/01/17 06:47:20;;;;;;;6.00;4.23;;;;;;;6.75;53.24;96022.63;6975366;28;20228;-79
2023/01/17 06:50:42;;;;;;;4.67;4.27;;;;;;;6.51;54.76;96066.72;6976812;28;20346;-79
2023/01/17 06:54:04;;;;;;;5.47;4.23;;;;;;;6.38;55.61;96077.75;6977922;28;20242;-79
2023/01/17 06:57:25;;;;;;;4.30;3.90;;;;;;;6.67;54.77;96083.81;6977006;28;20665;-79
2023/01/17 07:00:48;;;;;;;4.23;3.83;;;;;;;6.56;54.77;96072.16;6977628;28;20327;-79
2023/01/17 07:04:10;;;;;;;5.27;3.30;;;;;;;6.25;55.25;96071.94;6970940;28;20675;-79
2023/01/17 07:07:33;;;;;;;3.30;3.00;;;;;;;6.34;54.75;96057.09;6950003;28;20240;-79
2023/01/17 07:10:58;;;;;;;3.60;3.07;;;;;;;6.04;55.02;96053.94;6965103;28;20738;-79
2023/01/17 07:14:20;;;;;;;3.27;2.90;;;;;;;5.87;56.82;96075.34;6976448;28;20195;-79
2023/01/17 07:17:43;;;;;;;3.43;3.13;;;;;;;6.31;55.89;96070.97;6977441;28;20233;-79
2023/01/17 07:21:04;;;;;;;3.07;2.77;;;;;;;6.49;53.58;96074.16;6977567;28;20271;-79
2023/01/17 07:24:26;;;;;;;3.40;3.10;;;;;;;5.98;55.16;96074.47;7003855;28;20252;-79
2023/01/17 07:27:47;;;;;;;7.23;5.00;;;;;;;5.54;56.87;96077.13;7006162;28;20235;-79
2023/01/17 07:31:09;;;;;;;8.40;5.10;;;;;;;6.01;55.90;96065.94;6988574;28;20189;-79
2023/01/17 07:34:32;;;;;;;8.10;5.47;;;;;;;5.72;56.45;96052.88;6976344;28;20216;-79
2023/01/17 07:37:54;;;;;;;7.67;5.10;;;;;;;5.88;56.77;96044.88;6976703;28;20318;-79
2023/01/17 07:41:15;;;;;;;5.67;4.37;;;;;;;6.26;55.37;96042.25;6976233;28;20235;-79
2023/01/17 07:44:38;;;;;;;5.67;4.37;;;;;;;6.17;55.61;96034.88;6975599;28;20630;-79
2023/01/17 07:48:00;;;;;;;4.73;3.60;;;;;;;6.16;55.63;96027.94;6976305;28;20220;-79
2023/01/17 07:51:23;;;;;;;3.53;3.27;;;;;;;6.46;54.91;96041.75;6975981;28;20207;-79
2023/01/17 07:54:44;;;;;;;3.00;2.80;;;;;;;6.42;54.21;96038.75;6973751;28;20346;-79
2023/01/17 07:58:06;;;;;;;4.53;3.67;;;;;;;5.99;55.53;96030.63;6974797;28;20321;-80
2023/01/17 08:01:27;;;;;;;4.53;3.10;;;;;;;6.36;55.41;96018.34;6975770;28;20708;-79
2023/01/17 08:04:49;;;;;;;3.30;3.10;;;;;;;6.07;55.18;96006.13;6975014;28;20213;-79
2023/01/17 08:08:12;;;;;;;4.83;4.27;;;;;;;5.81;57.03;96030.88;6975699;28;20788;-79
2023/01/17 08:11:33;;;;;;;6.83;4.60;;;;;;;6.16;55.04;96014.56;6974890;28;20230;-79
2023/01/17 08:14:55;;;;;;;7.60;4.53;;;;;;;6.38;54.50;96034.16;6974339;28;20294;-80
2023/01/17 08:18:17;;;;;;;5.87;4.13;;;;;;;6.26;54.55;96004.81;6976237;28;20255;-80
2023/01/17 08:21:38;;;;;;;7.47;4.20;;;;;;;6.52;53.89;96038.06;6975179;28;20233;-80
2023/01/17 08:25:01;;;;;;;6.37;3.83;;;;;;;6.14;53.27;95977.34;6975043;28;20314;-80
2023/01/17 08:28:22;;;;;;;5.80;4.40;;;;;;;6.52;54.01;96028.19;6974678;28;20325;-80
2023/01/17 08:31:44;;;;;;;6.67;3.70;;;;;;;6.83;53.84;96040.91;6976058;28;20189;-79
2023/01/17 08:35:06;;;;;;;4.97;3.00;;;;;;;6.75;51.98;96032.50;6975067;28;20240;-80
2023/01/17 08:38:27;;;;;;;5.03;3.33;;;;;;;6.80;52.10;96025.38;6975967;28;20272;-80
2023/01/17 08:41:50;;;;;;;4.63;3.47;;;;;;;6.63;51.63;96038.00;6975358;28;20270;-79
2023/01/17 08:45:13;;;;;;;3.63;3.17;;;;;;;6.53;52.99;96031.66;6974021;28;20228;-79
2023/01/17 08:48:35;;;;;;;4.53;3.70;;;;;;;7.00;52.67;96022.91;6974684;28;20308;-79
2023/01/17 08:51:56;;;;;;;6.60;3.80;;;;;;;7.09;52.77;96021.44;6974401;28;20287;-79
2023/01/17 08:55:18;;;;;;;5.23;3.93;;;;;;;7.56;51.50;96024.34;6973753;28;20592;-79
2023/01/17 08:58:41;;;;;;;4.77;3.70;;;;;;;7.73;50.54;96009.72;6973980;28;20236;-78
2023/01/17 09:02:13;;;;;;;6.00;3.60;;;;;;;7.68;50.81;96012.41;6972754;28;20206;-80
2023/01/17 09:05:34;;;;;;;6.00;3.23;;;;;;;7.37;50.47;96020.41;6973297;28;20183;-78
2023/01/17 09:08:58;;;;;;;3.50;2.93;;;;;;;7.10;50.98;96019.53;6971946;28;20217;-79
2023/01/17 09:12:21;;;;;;;3.77;2.97;;;;;;;6.47;52.99;96011.25;6948629;28;20218;-79
2023/01/17 09:15:43;;;;;;;3.17;2.87;;;;;;;6.89;53.02;96028.41;6958411;28;20687;-79
2023/01/17 09:19:05;;;;;;;2.37;2.27;;;;;;;7.34;52.21;96015.53;6974504;28;20379;-79
2023/01/17 09:22:26;;;;;;;4.73;2.93;;;;;;;7.69;51.02;96022.06;6975057;28;20292;-81
2023/01/17 09:25:52;;;;;;;3.73;3.43;;;;;;;7.92;50.80;96004.81;6974559;28;20317;-80
2023/01/17 09:29:16;;;;;;;4.23;3.63;;;;;;;8.40;51.19;95991.22;6978510;28;20202;-80
2023/01/17 09:32:39;;;;;;;3.83;3.00;;;;;;;8.87;48.96;95992.81;6976841;28;20346;-80
2023/01/17 09:36:03;;;;;;;3.70;3.30;;;;;;;8.78;49.22;95964.84;6976264;28;20306;-79
2023/01/17 09:39:24;;;;;;;4.73;2.87;;;;;;;9.39;47.66;95988.94;6974648;28;20691;-80
2023/01/17 09:42:49;;;;;;;4.30;3.00;;;;;;;9.54;46.94;95972.03;6974269;28;20224;-80
2023/01/17 09:46:21;;;;;;;3.03;2.77;;;;;;;9.94;45.02;95972.06;6972767;28;20286;-79
2023/01/17 09:49:45;;;;;;;4.43;2.80;;;;;;;10.35;44.77;95968.28;6974710;28;20204;-79
2023/01/17 09:53:12;;;;;;;4.83;3.23;;;;;;;10.23;43.66;95940.84;6974390;28;20241;-80
2023/01/17 09:56:37;;;;;;;3.20;2.90;;;;;;;10.36;44.43;95969.88;6973670;28;20300;-79
2023/01/17 10:00:05;;;;;;;3.63;2.73;;;;;;;9.38;43.88;95965.00;6974212;28;20317;-79
2023/01/17 10:03:42;;;;;;;3.00;2.60;;;;;;;9.89;46.44;95958.59;6974711;28;20644;-81
2023/01/17 10:07:13;;;;;;;2.00;1.90;;;;;;;10.96;41.49;95954.34;6974129;28;20226;-79
2023/01/17 10:10:40;;;;;;;2.77;2.30;;;;;;;11.28;39.54;95935.84;6974525;28;20259;-79
2023/01/17 10:14:15;;;;;;;2.73;2.30;;;;;;;10.64;40.96;95947.75;6973973;28;20655;-80
2023/01/17 10:17:43;;;;;;;3.60;2.00;;;;;;;10.74;39.16;95953.09;6973861;28;20309;-79
2023/01/17 10:21:10;;;;;;;2.60;2.40;;;;;;;10.44;40.36;95934.31;6978940;28;20299;-80
2023/01/17 10:25:02;;;;;;;2.23;2.03;;;;;;;8.36;43.05;95944.50;6979390;28;20281;-80
2023/01/17 10:28:27;;;;;;;2.33;2.13;;;;;;;8.17;43.85;95908.41;6979821;28;20223;-80
2023/01/17 10:31:51;;;;;;;2.60;2.40;;;;;;;8.81;45.13;95928.59;6979387;28;20319;-80
2023/01/17 10:35:20;;;;;;;3.73;2.40;;;;;;;8.93;45.48;95938.03;6978875;28;20234;-81
2023/01/17 10:38:45;;;;;;;2.70;2.50;;;;;;;8.58;44.21;95923.66;6979848;28;20250;-80
2023/01/17 10:42:15;;;;;;;2.67;2.43;;;;;;;8.58;42.29;95915.59;6978897;28;20258;-80
2023/01/17 10:45:42;;;;;;;2.60;2.40;;;;;;;9.05;42.94;95925.97;6978481;28;20289;-83
2023/01/17 10:49:03;;;;;;;3.17;2.40;;;;;;;9.54;42.57;95896.72;6981577;28;20676;-78
2023/01/17 10:52:36;;;;;;;5.43;2.50;;;;;;;9.31;41.47;95924.97;6980015;28;20351;-81
2023/01/17 10:55:58;;;;;;;2.40;2.30;;;;;;;9.54;41.74;95907.50;6980494;28;20295;-80
2023/01/17 10:59:28;;;;;;;2.53;2.30;;;;;;;9.55;42.89;95915.28;6980853;28;20384;-81
2023/01/17 11:02:50;;;;;;;2.60;2.40;;;;;;;9.09;41.77;95899.41;6981459;28;20186;-81
2023/01/17 11:06:17;;;;;;;2.50;2.30;;;;;;;9.29;40.04;95907.47;6981619;28;20254;-81
2023/01/17 11:09:39;;;;;;;2.50;2.30;;;;;;;9.29;40.30;95896.72;6979321;28;20255;-81
2023/01/17 11:13:01;;;;;;;4.87;2.50;;;;;;;9.92;39.61;95893.50;6979107;28;20207;-81
2023/01/17 11:16:26;;;;;;;2.40;2.20;;;;;;;10.29;38.23;95910.13;6981371;28;20259;-81
2023/01/17 11:19:50;;;;;;;3.67;1.90;;;;;;;10.83;34.57;95902.94;6980450;28;20227;-80
2023/01/17 11:23:15;;;;;;;1.93;1.83;;;;;;;10.90;34.89;95901.56;6979452;28;20298;-79
2023/01/17 11:26:37;;;;;;;2.00;1.90;;;;;;;10.23;35.30;95885.13;6978214;28;20257;-82
2023/01/17 11:30:03;;;;;;;3.40;2.07;;;;;;;10.25;36.73;95882.97;6979169;28;20294;-80
2023/01/17 11:33:52;;;;;;;1.97;1.80;;;;;;;11.66;34.11;95858.72;6977842;28;20218;-82
2023/01/17 11:37:18;;;;;;;2.17;2.00;;;;;;;11.32;33.47;95847.09;7001344;28;20214;-81
2023/01/17 11:40:41;;;;;;;2.87;2.00;;;;;;;10.55;33.78;95796.66;7000147;28;20313;-82
2023/01/17 11:44:06;;;;;;;3.17;1.80;;;;;;;9.68;36.95;95860.16;6978348;28;20301;-80
2023/01/17 11:47:27;;;;;;;1.80;1.70;;;;;;;10.88;33.99;95863.31;6977894;28;20380;-80
2023/01/17 11:50:55;;;;;;;1.90;1.80;;;;;;;10.27;35.42;95858.47;6978015;28;20291;-80
2023/01/17 11:54:18;;;;;;;3.97;2.20;;;;;;;10.34;35.17;95851.69;6979676;28;20575;-80
2023/01/17 11:57:40;;;;;;;2.33;1.80;;;;;;;10.22;34.87;95831.56;6979428;28;20221;-80
2023/01/17 12:01:13;;;;;;;1.70;1.60;;;;;;;10.22;34.33;95831.56;6979788;28;20225;-80
2023/01/17 12:04:38;;;;;;;2.77;2.13;;;;;;;10.00;35.22;95810.34;6973685;28;20254;-80
2023/01/17 12:08:08;;;;;;;2.37;2.17;;;;;;;9.36;35.79;95822.81;6979206;28;20241;-80
2023/01/17 12:11:38;;;;;;;4.03;1.93;;;;;;;9.37;34.62;95794.84;6978475;28;20762;-80
2023/01/17 12:15:08;;;;;;;5.13;2.90;;;;;;;9.66;35.86;95813.91;6977785;28;20205;-80
2023/01/17 12:18:38;;;;;;;2.10;2.00;;;;;;;9.65;35.40;95804.22;6978179;28;20313;-80
2023/01/17 12:22:10;;;;;;;2.27;2.07;;;;;;;10.16;35.48;95793.06;6978522;28;20292;-80
2023/01/17 12:25:45;;;;;;;2.70;2.10;;;;;;;10.49;34.32;95784.31;6976555;28;20186;-80
2023/01/17 12:29:29;;;;;;;2.57;2.00;;;;;;;10.18;34.81;95801.69;6973353;28;20239;-79
2023/01/17 12:33:05;;;;;;;2.40;2.20;;;;;;;9.95;34.62;95771.84;6956302;28;20240;-79
2023/01/17 12:36:35;;;;;;;2.43;2.23;;;;;;;9.18;35.06;95756.16;6975792;28;20387;-79
2023/01/17 12:40:00;;;;;;;2.07;1.97;;;;;;;9.10;36.12;95778.19;6948330;28;20214;-79
2023/01/17 12:43:25;;;;;;;2.80;2.00;;;;;;;9.36;35.47;95778.97;6948078;28;20294;-80
2023/01/17 12:46:50;;;;;;;2.13;2.03;;;;;;;9.23;34.95;95698.91;6946944;28;20330;-80
2023/01/17 12:50:21;;;;;;;2.30;2.00;;;;;;;10.02;34.27;95746.28;6948393;28;20203;-80
2023/01/17 12:53:47;;;;;;;2.27;2.17;;;;;;;9.16;35.32;95749.44;6948659;28;20277;-80
2023/01/17 12:57:12;;;;;;;2.20;2.00;;;;;;;9.47;34.98;95745.63;6947624;28;20696;-80
2023/01/17 13:00:38;;;;;;;2.57;1.90;;;;;;;9.21;35.82;95703.75;6948086;28;20298;-80
2023/01/17 13:04:11;;;;;;;2.60;1.83;;;;;;;9.27;35.87;95737.63;6947756;28;20294;-80
2023/01/17 13:07:39;;;;;;;1.73;1.63;;;;;;;9.23;36.53;95736.53;6948233;28;20231;-80
2023/01/17 13:11:04;;;;;;;2.20;2.10;;;;;;;9.93;35.29;95718.31;6947929;28;20194;-80
2023/01/17 13:14:26;;;;;;;2.67;1.97;;;;;;;9.70;34.87;95715.44;6947637;28;20684;-79
2023/01/17 13:17:50;;;;;;;2.60;1.90;;;;;;;9.55;35.37;95675.97;6948654;28;20599;-79
2023/01/17 13:21:28;;;;;;;2.00;1.90;;;;;;;9.98;34.64;95712.13;6948110;28;20294;-77
2023/01/17 13:24:57;;;;;;;2.20;2.10;;;;;;;9.31;36.92;95703.72;6948572;28;20342;-79
2023/01/17 13:28:27;;;;;;;2.37;1.97;;;;;;;9.27;36.43;95705.34;6975254;28;20387;-79
2023/01/17 13:31:51;;;;;;;2.77;1.80;;;;;;;9.75;36.05;95696.59;6975469;28;20182;-79
2023/01/17 13:35:21;;;;;;;2.30;2.10;;;;;;;10.09;34.74;95719.09;6974998;28;20209;-80
2023/01/17 13:38:54;;;;;;;1.90;1.80;;;;;;;9.98;34.35;95677.13;6974563;28;20275;-80
2023/01/17 13:42:23;;;;;;;2.00;1.90;;;;;;;9.14;35.29;95673.66;6947034;28;20316;-79
2023/01/17 13:45:52;;;;;;;2.50;2.00;;;;;;;9.13;35.36;95655.13;6953830;28;20274;-79
2023/01/17 13:49:33;;;;;;;2.40;2.20;;;;;;;9.56;36.28;95699.09;6947152;28;20297;-79
2023/01/17 13:52:56;;;;;;;2.67;2.47;;;;;;;10.44;34.37;95687.38;6948032;28;20195;-79
2023/01/17 13:56:28;;;;;;;3.27;2.43;;;;;;;9.48;33.83;95690.78;6960172;28;20297;-79
2023/01/17 13:59:50;;;;;;;2.33;2.13;;;;;;;10.13;34.27;95690.53;6979011;28;20252;-80
2023/01/17 14:03:11;;;;;;;4.50;2.40;;;;;;;10.07;33.77;95692.47;6979308;28;20290;-79
2023/01/17 14:06:39;;;;;;;3.00;2.40;;;;;;;10.44;34.65;95684.69;6980455;28;20227;-79
2023/01/17 14:10:19;;;;;;;3.33;2.70;;;;;;;9.61;34.96;95700.94;6980475;28;20206;-79
2023/01/17 14:13:40;;;;;;;5.87;3.10;;;;;;;9.72;34.95;95695.28;6981077;28;20297;-79
2023/01/17 14:17:46;;;;;;;5.70;3.20;;;;;;;9.53;34.81;95701.53;6979881;28;20300;-80
2023/01/17 14:21:11;;;;;;;4.43;2.90;;;;;;;10.41;34.34;95714.06;6931624;28;20229;-79
2023/01/17 14:24:33;;;;;;;6.53;3.40;;;;;;;10.08;34.70;95696.75;6951991;28;20270;-80
2023/01/17 14:27:59;;;;;;;2.67;2.47;;;;;;;9.54;35.21;95714.69;6952195;28;20310;-79
2023/01/17 14:31:22;;;;;;;3.03;2.73;;;;;;;8.87;36.43;95693.84;6951888;28;20727;-80
2023/01/17 14:34:44;;;;;;;3.30;2.67;;;;;;;9.26;35.35;95701.03;6953535;28;20211;-80
2023/01/17 14:38:15;;;;;;;2.93;2.60;;;;;;;9.45;35.43;95686.75;6979250;28;20837;-80
2023/01/17 14:41:37;;;;;;;5.03;2.63;;;;;;;9.34;36.22;95712.03;6978473;28;20352;-80
2023/01/17 14:45:03;;;;;;;3.57;2.80;;;;;;;9.45;35.40;95691.34;6977705;28;20237;-80
2023/01/17 14:48:24;;;;;;;3.67;2.80;;;;;;;10.05;33.81;95686.53;6978901;28;20313;-81
2023/01/17 14:51:59;;;;;;;3.70;2.73;;;;;;;9.56;35.33;95691.03;6978500;28;20305;-80
2023/01/17 14:55:22;;;;;;;4.63;3.33;;;;;;;9.96;35.00;95688.16;6977806;28;20243;-80
2023/01/17 14:58:45;;;;;;;3.77;3.27;;;;;;;9.96;34.33;95669.34;6951317;28;20210;-82
2023/01/17 15:02:14;;;;;;;5.23;3.40;;;;;;;10.24;33.61;95684.00;6951122;28;20578;-80
2023/01/17 15:05:39;;;;;;;5.20;3.50;;;;;;;9.59;34.38;95698.56;6950534;28;20202;-79
2023/01/17 15:09:02;;;;;;;4.33;3.10;;;;;;;9.38;35.00;95704.22;6950883;28;20198;-80
2023/01/17 15:12:23;;;;;;;6.23;3.93;;;;;;;10.00;34.93;95691.94;6951253;28;20337;-81
2023/01/17 15:15:45;;;;;;;5.47;3.93;;;;;;;10.07;34.67;95670.94;6967933;28;20317;-80
2023/01/17 15:19:13;;;;;;;5.20;3.77;;;;;;;9.80;34.62;95699.28;6977367;28;20210;-80
2023/01/17 15:22:34;;;;;;;6.17;3.53;;;;;;;9.96;34.53;95679.28;6949521;28;20230;-81
2023/01/17 15:25:56;;;;;;;8.43;3.87;;;;;;;10.20;34.93;95685.63;6957593;28;20226;-81
2023/01/17 15:29:23;;;;;;;7.50;3.97;;;;;;;8.97;35.45;95680.41;6975647;28;20282;-80
2023/01/17 15:32:48;;;;;;;8.10;3.87;;;;;;;9.36;35.31;95698.34;6975476;28;20213;-81
2023/01/17 15:36:17;;;;;;;6.23;3.97;;;;;;;9.31;35.61;95676.84;6976478;28;20264;-80
2023/01/17 15:39:40;;;;;;;9.90;3.77;;;;;;;9.33;35.73;95675.50;6977103;28;20284;-80
2023/01/17 15:43:01;;;;;;;6.33;4.57;;;;;;;8.59;36.28;95662.16;6977452;28;20756;-80
2023/01/17 15:46:33;;;;;;;6.70;4.20;;;;;;;9.28;35.87;95688.94;6976758;28;20284;-80
2023/01/17 15:49:55;;;;;;;6.27;4.93;;;;;;;8.92;36.93;95683.91;6981993;28;20369;-80
2023/01/17 15:53:36;;;;;;;7.90;4.93;;;;;;;8.99;36.05;95663.72;6981508;28;20202;-79
2023/01/17 15:57:16;;;;;;;9.47;4.90;;;;;;;9.28;35.38;95659.38;6977469;28;20253;-78
2023/01/17 16:00:40;;;;;;;7.07;4.50;;;;;;;9.18;35.88;95677.41;6976955;28;20214;-78
2023/01/17 16:04:02;;;;;;;7.00;4.30;;;;;;;8.89;37.25;95689.03;6977675;28;20570;-79
2023/01/17 16:07:30;;;;;;;6.03;4.33;;;;;;;9.56;35.49;95687.53;6976963;28;20286;-78
2023/01/17 16:10:56;;;;;;;9.40;4.60;;;;;;;8.90;36.99;95690.63;6976125;28;20347;-78
2023/01/17 16:14:18;;;;;;;6.03;4.20;;;;;;;8.83;36.40;95690.09;6975703;28;20661;-78
2023/01/17 16:17:41;;;;;;;4.47;3.97;;;;;;;9.29;36.43;95701.31;6974204;28;20241;-79
2023/01/17 16:21:14;;;;;;;6.43;4.67;;;;;;;9.61;35.52;95709.84;6973157;28;20315;-78
2023/01/17 16:24:35;;;;;;;7.17;4.70;;;;;;;9.03;37.21;95718.53;6973870;28;20277;-80
2023/01/17 16:27:59;;;;;;;8.23;5.27;;;;;;;8.57;37.50;95685.78;6974035;28;20233;-79
2023/01/17 16:31:20;;;;;;;6.33;4.80;;;;;;;8.99;37.05;95716.69;6974354;28;20206;-78
2023/01/17 16:34:42;;;;;;;5.20;4.50;;;;;;;8.74;36.92;95672.91;6971803;28;20209;-80
2023/01/17 16:38:05;;;;;;;6.67;4.50;;;;;;;8.86;37.13;95721.78;6974452;28;20280;-79
2023/01/17 16:41:27;;;;;;;8.23;5.53;;;;;;;8.69;37.07;95724.75;6974506;28;20332;-78
2023/01/17 16:44:50;;;;;;;10.03;5.67;;;;;;;8.62;37.90;95723.38;6972562;28;20318;-79
2023/01/17 16:48:11;;;;;;;7.20;5.30;;;;;;;8.85;37.75;95715.59;6974564;28;20256;-78
2023/01/17 16:51:33;;;;;;;6.60;5.10;;;;;;;8.66;37.46;95719.88;6973929;28;20343;-79
2023/01/17 16:54:55;;;;;;;9.97;5.40;;;;;;;8.19;37.84;95680.91;6974410;28;20720;-79
2023/01/17 16:58:16;;;;;;;6.33;4.07;;;;;;;8.01;37.92;95667.97;6974455;28;20225;-81
2023/01/17 17:01:39;;;;;;;6.77;5.10;;;;;;;8.79;38.02;95724.72;6973783;28;20218;-79
2023/01/17 17:05:01;;;;;;;7.73;5.10;;;;;;;8.42;37.95;95731.44;6973915;28;20301;-80
2023/01/17 17:08:22;;;;;;;6.07;4.80;;;;;;;8.33;39.20;95723.09;6973694;28;20716;-78
2023/01/17 17:11:44;;;;;;;8.87;5.47;;;;;;;8.30;40.07;95728.19;6973012;28;20248;-79
2023/01/17 17:15:06;;;;;;;8.80;4.53;;;;;;;7.68;42.41;95743.47;6972157;28;20691;-80
2023/01/17 17:18:29;;;;;;;7.87;5.63;;;;;;;8.08;42.48;95731.00;6973195;28;20258;-78
2023/01/17 17:21:51;;;;;;;7.60;4.30;;;;;;;8.02;43.60;95740.13;6973401;28;20229;-79
2023/01/17 17:25:12;;;;;;;7.50;5.20;;;;;;;7.69;44.60;95708.38;6972303;28;20340;-78
2023/01/17 17:28:34;;;;;;;4.37;3.80;;;;;;;7.99;45.04;95732.63;6972195;28;20226;-79
2023/01/17 17:31:56;;;;;;;5.50;4.13;;;;;;;8.29;45.09;95759.56;6973199;28;20202;-79
2023/01/17 17:35:19;;;;;;;8.07;4.13;;;;;;;8.26;45.57;95735.94;6972712;28;20666;-79